sensor_id;sensor_type;location;lat;lon;timestamp;P1;durP1;ratioP1;P2;durP2;ratioP2
16804;SDS011;8520;50.102;20.010;2023-07-02T00:01:13;123.32;;;115.57;;
16804;SDS011;8520;50.102;20.010;2023-07-02T00:03:42;125.47;;;117.68;;
16804;SDS011;8520;50.102;20.010;2023-07-02T00:06:10;128.35;;;120.05;;
16804;SDS011;8520;50.102;20.010;2023-07-02T00:08:38;131.77;;;123.18;;
16804;SDS011;8520;50.102;20.010;2023-07-02T00:11:08;135.27;;;126.38;;
16804;SDS011;8520;50.102;20.010;2023-07-02T00:13:39;134.45;;;125.65;;
16804;SDS011;8520;50.102;20.010;2023-07-02T00:16:07;138.85;;;129.55;;
16804;SDS011;8520;50.102;20.010;2023-07-02T00:18:35;138.02;;;128.93;;
16804;SDS011;8520;50.102;20.010;2023-07-02T00:21:05;138.48;;;129.30;;
16804;SDS011;8520;50.102;20.010;2023-07-02T00:23:33;138.00;;;128.98;;
16804;SDS011;8520;50.102;20.010;2023-07-02T00:26:01;140.10;;;130.80;;
16804;SDS011;8520;50.102;20.010;2023-07-02T00:28:31;134.48;;;125.68;;
16804;SDS011;8520;50.102;20.010;2023-07-02T00:30:59;132.95;;;124.28;;
16804;SDS011;8520;50.102;20.010;2023-07-02T00:33:29;133.35;;;124.68;;
16804;SDS011;8520;50.102;20.010;2023-07-02T00:35:58;128.60;;;120.10;;
16804;SDS011;8520;50.102;20.010;2023-07-02T00:38:27;125.22;;;117.30;;
16804;SDS011;8520;50.102;20.010;2023-07-02T00:40:55;123.38;;;115.68;;
16804;SDS011;8520;50.102;20.010;2023-07-02T00:43:23;123.00;;;115.22;;
16804;SDS011;8520;50.102;20.010;2023-07-02T00:45:53;123.93;;;115.93;;
16804;SDS011;8520;50.102;20.010;2023-07-02T00:48:21;123.25;;;115.45;;
16804;SDS011;8520;50.102;20.010;2023-07-02T00:50:49;125.10;;;117.22;;
16804;SDS011;8520;50.102;20.010;2023-07-02T00:53:18;125.95;;;118.10;;
16804;SDS011;8520;50.102;20.010;2023-07-02T00:55:46;128.38;;;120.13;;
16804;SDS011;8520;50.102;20.010;2023-07-02T00:58:14;129.50;;;121.10;;
16804;SDS011;8520;50.102;20.010;2023-07-02T01:00:43;130.20;;;121.63;;
16804;SDS011;8520;50.102;20.010;2023-07-02T01:03:13;130.43;;;122.07;;
16804;SDS011;8520;50.102;20.010;2023-07-02T01:05:42;131.38;;;122.68;;
16804;SDS011;8520;50.102;20.010;2023-07-02T01:08:10;132.18;;;123.60;;
16804;SDS011;8520;50.102;20.010;2023-07-02T01:10:38;132.10;;;123.60;;
16804;SDS011;8520;50.102;20.010;2023-07-02T01:13:07;134.30;;;125.60;;
16804;SDS011;8520;50.102;20.010;2023-07-02T01:15:39;134.65;;;125.82;;
16804;SDS011;8520;50.102;20.010;2023-07-02T01:18:07;136.57;;;127.65;;
16804;SDS011;8520;50.102;20.010;2023-07-02T01:20:37;137.10;;;127.97;;
16804;SDS011;8520;50.102;20.010;2023-07-02T01:23:06;139.10;;;129.77;;
16804;SDS011;8520;50.102;20.010;2023-07-02T01:25:36;140.15;;;130.85;;
16804;SDS011;8520;50.102;20.010;2023-07-02T01:28:04;141.50;;;132.00;;
16804;SDS011;8520;50.102;20.010;2023-07-02T01:30:33;141.50;;;131.98;;
16804;SDS011;8520;50.102;20.010;2023-07-02T01:33:04;143.80;;;134.23;;
16804;SDS011;8520;50.102;20.010;2023-07-02T01:35:32;144.73;;;134.88;;
16804;SDS011;8520;50.102;20.010;2023-07-02T01:38:02;146.05;;;136.20;;
16804;SDS011;8520;50.102;20.010;2023-07-02T01:40:30;147.70;;;137.70;;
16804;SDS011;8520;50.102;20.010;2023-07-02T01:42:58;149.88;;;139.32;;
16804;SDS011;8520;50.102;20.010;2023-07-02T01:45:26;148.13;;;137.98;;
16804;SDS011;8520;50.102;20.010;2023-07-02T01:47:54;149.68;;;139.35;;
16804;SDS011;8520;50.102;20.010;2023-07-02T01:50:22;150.88;;;139.90;;
16804;SDS011;8520;50.102;20.010;2023-07-02T01:52:51;152.90;;;142.40;;
16804;SDS011;8520;50.102;20.010;2023-07-02T01:55:21;155.13;;;144.23;;
16804;SDS011;8520;50.102;20.010;2023-07-02T01:57:50;152.63;;;142.07;;
16804;SDS011;8520;50.102;20.010;2023-07-02T02:00:18;155.35;;;144.38;;
16804;SDS011;8520;50.102;20.010;2023-07-02T02:02:47;153.18;;;142.65;;
16804;SDS011;8520;50.102;20.010;2023-07-02T02:05:15;153.13;;;142.48;;
16804;SDS011;8520;50.102;20.010;2023-07-02T02:07:45;153.18;;;142.27;;
16804;SDS011;8520;50.102;20.010;2023-07-02T02:10:13;149.38;;;139.15;;
16804;SDS011;8520;50.102;20.010;2023-07-02T02:12:42;148.65;;;138.38;;
16804;SDS011;8520;50.102;20.010;2023-07-02T02:15:12;147.55;;;137.23;;
16804;SDS011;8520;50.102;20.010;2023-07-02T02:17:40;144.32;;;134.43;;
16804;SDS011;8520;50.102;20.010;2023-07-02T02:20:09;143.52;;;133.73;;
16804;SDS011;8520;50.102;20.010;2023-07-02T02:22:38;141.65;;;132.05;;
16804;SDS011;8520;50.102;20.010;2023-07-02T02:25:06;142.02;;;132.00;;
16804;SDS011;8520;50.102;20.010;2023-07-02T02:27:35;140.40;;;130.85;;
16804;SDS011;8520;50.102;20.010;2023-07-02T02:30:06;142.38;;;132.68;;
16804;SDS011;8520;50.102;20.010;2023-07-02T02:32:35;142.82;;;133.18;;
16804;SDS011;8520;50.102;20.010;2023-07-02T02:35:07;143.18;;;133.40;;
16804;SDS011;8520;50.102;20.010;2023-07-02T02:37:37;144.98;;;135.20;;
16804;SDS011;8520;50.102;20.010;2023-07-02T02:40:07;147.57;;;137.43;;
16804;SDS011;8520;50.102;20.010;2023-07-02T02:42:38;149.48;;;139.13;;
16804;SDS011;8520;50.102;20.010;2023-07-02T02:45:08;149.73;;;139.43;;
16804;SDS011;8520;50.102;20.010;2023-07-02T02:47:37;150.02;;;139.77;;
16804;SDS011;8520;50.102;20.010;2023-07-02T02:50:05;147.88;;;137.57;;
16804;SDS011;8520;50.102;20.010;2023-07-02T02:52:36;149.00;;;138.68;;
16804;SDS011;8520;50.102;20.010;2023-07-02T02:55:05;148.38;;;137.90;;
16804;SDS011;8520;50.102;20.010;2023-07-02T02:57:34;147.27;;;137.25;;
16804;SDS011;8520;50.102;20.010;2023-07-02T03:00:02;147.02;;;137.13;;
16804;SDS011;8520;50.102;20.010;2023-07-02T03:02:32;145.38;;;135.32;;
16804;SDS011;8520;50.102;20.010;2023-07-02T03:05:01;144.48;;;134.55;;
16804;SDS011;8520;50.102;20.010;2023-07-02T03:07:29;143.77;;;133.77;;
16804;SDS011;8520;50.102;20.010;2023-07-02T03:09:58;141.98;;;132.40;;
16804;SDS011;8520;50.102;20.010;2023-07-02T03:12:26;142.15;;;132.38;;
16804;SDS011;8520;50.102;20.010;2023-07-02T03:14:54;140.52;;;131.23;;
16804;SDS011;8520;50.102;20.010;2023-07-02T03:17:22;141.20;;;131.80;;
16804;SDS011;8520;50.102;20.010;2023-07-02T03:19:52;139.60;;;130.30;;
16804;SDS011;8520;50.102;20.010;2023-07-02T03:22:20;140.13;;;130.60;;
16804;SDS011;8520;50.102;20.010;2023-07-02T03:24:48;138.55;;;129.30;;
16804;SDS011;8520;50.102;20.010;2023-07-02T03:27:16;138.07;;;128.90;;
16804;SDS011;8520;50.102;20.010;2023-07-02T03:29:45;138.00;;;128.80;;
16804;SDS011;8520;50.102;20.010;2023-07-02T03:32:13;139.80;;;130.05;;
16804;SDS011;8520;50.102;20.010;2023-07-02T03:34:41;137.55;;;128.40;;
16804;SDS011;8520;50.102;20.010;2023-07-02T03:37:11;138.18;;;128.98;;
16804;SDS011;8520;50.102;20.010;2023-07-02T03:39:39;136.02;;;126.82;;
16804;SDS011;8520;50.102;20.010;2023-07-02T03:42:07;134.48;;;125.57;;
16804;SDS011;8520;50.102;20.010;2023-07-02T03:44:35;135.75;;;126.75;;
16804;SDS011;8520;50.102;20.010;2023-07-02T03:47:03;134.40;;;125.43;;
16804;SDS011;8520;50.102;20.010;2023-07-02T03:49:35;132.93;;;124.22;;
16804;SDS011;8520;50.102;20.010;2023-07-02T03:52:03;134.52;;;125.53;;
16804;SDS011;8520;50.102;20.010;2023-07-02T03:54:33;134.40;;;125.50;;
16804;SDS011;8520;50.102;20.010;2023-07-02T03:57:01;135.50;;;126.50;;
16804;SDS011;8520;50.102;20.010;2023-07-02T03:59:29;134.88;;;125.88;;
16804;SDS011;8520;50.102;20.010;2023-07-02T04:01:57;134.43;;;125.32;;
16804;SDS011;8520;50.102;20.010;2023-07-02T04:04:26;132.50;;;123.75;;
16804;SDS011;8520;50.102;20.010;2023-07-02T04:06:54;134.25;;;125.25;;
16804;SDS011;8520;50.102;20.010;2023-07-02T04:09:22;134.65;;;125.55;;
16804;SDS011;8520;50.102;20.010;2023-07-02T04:11:52;133.00;;;124.25;;
16804;SDS011;8520;50.102;20.010;2023-07-02T04:14:20;136.13;;;126.95;;
16804;SDS011;8520;50.102;20.010;2023-07-02T04:16:48;133.52;;;124.72;;
16804;SDS011;8520;50.102;20.010;2023-07-02T04:19:16;132.80;;;123.97;;
16804;SDS011;8520;50.102;20.010;2023-07-02T04:21:45;132.20;;;123.50;;
16804;SDS011;8520;50.102;20.010;2023-07-02T04:24:13;130.88;;;122.25;;
16804;SDS011;8520;50.102;20.010;2023-07-02T04:26:42;128.00;;;119.70;;
16804;SDS011;8520;50.102;20.010;2023-07-02T04:29:32;128.18;;;119.95;;
16804;SDS011;8520;50.102;20.010;2023-07-02T04:32:00;128.93;;;120.38;;
16804;SDS011;8520;50.102;20.010;2023-07-02T04:34:29;125.60;;;117.53;;
16804;SDS011;8520;50.102;20.010;2023-07-02T04:36:57;126.72;;;118.45;;
16804;SDS011;8520;50.102;20.010;2023-07-02T04:39:25;124.95;;;116.80;;
16804;SDS011;8520;50.102;20.010;2023-07-02T04:41:53;126.18;;;118.18;;
16804;SDS011;8520;50.102;20.010;2023-07-02T04:44:21;124.72;;;116.82;;
16804;SDS011;8520;50.102;20.010;2023-07-02T04:46:58;125.72;;;117.43;;
16804;SDS011;8520;50.102;20.010;2023-07-02T04:49:27;123.97;;;115.88;;
16804;SDS011;8520;50.102;20.010;2023-07-02T04:51:57;122.13;;;114.43;;
16804;SDS011;8520;50.102;20.010;2023-07-02T04:54:25;122.25;;;114.55;;
16804;SDS011;8520;50.102;20.010;2023-07-02T04:56:53;119.35;;;111.72;;
16804;SDS011;8520;50.102;20.010;2023-07-02T04:59:21;120.05;;;112.35;;
16804;SDS011;8520;50.102;20.010;2023-07-02T05:01:50;121.15;;;113.53;;
16804;SDS011;8520;50.102;20.010;2023-07-02T05:04:19;119.18;;;111.57;;
16804;SDS011;8520;50.102;20.010;2023-07-02T05:06:47;118.18;;;110.72;;
16804;SDS011;8520;50.102;20.010;2023-07-02T05:09:15;117.32;;;109.95;;
16804;SDS011;8520;50.102;20.010;2023-07-02T05:11:43;115.47;;;108.32;;
16804;SDS011;8520;50.102;20.010;2023-07-02T05:14:12;112.82;;;105.82;;
16804;SDS011;8520;50.102;20.010;2023-07-02T05:16:40;111.45;;;104.68;;
16804;SDS011;8520;50.102;20.010;2023-07-02T05:19:08;109.18;;;102.28;;
16804;SDS011;8520;50.102;20.010;2023-07-02T05:21:38;107.15;;;100.65;;
16804;SDS011;8520;50.102;20.010;2023-07-02T05:24:07;103.22;;;97.20;;
16804;SDS011;8520;50.102;20.010;2023-07-02T05:26:36;100.68;;;94.70;;
16804;SDS011;8520;50.102;20.010;2023-07-02T05:29:04;97.03;;;91.35;;
16804;SDS011;8520;50.102;20.010;2023-07-02T05:31:32;95.60;;;90.00;;
16804;SDS011;8520;50.102;20.010;2023-07-02T05:34:01;93.40;;;87.90;;
16804;SDS011;8520;50.102;20.010;2023-07-02T05:36:29;90.85;;;85.68;;
16804;SDS011;8520;50.102;20.010;2023-07-02T05:38:59;82.45;;;77.75;;
16804;SDS011;8520;50.102;20.010;2023-07-02T05:41:27;78.28;;;73.70;;
16804;SDS011;8520;50.102;20.010;2023-07-02T05:43:57;74.15;;;70.00;;
16804;SDS011;8520;50.102;20.010;2023-07-02T05:46:26;73.40;;;69.07;;
16804;SDS011;8520;50.102;20.010;2023-07-02T05:48:54;65.07;;;61.38;;
16804;SDS011;8520;50.102;20.010;2023-07-02T05:51:23;54.13;;;51.13;;
16804;SDS011;8520;50.102;20.010;2023-07-02T05:53:52;54.40;;;51.08;;
16804;SDS011;8520;50.102;20.010;2023-07-02T05:56:21;51.60;;;48.83;;
16804;SDS011;8520;50.102;20.010;2023-07-02T05:58:50;48.65;;;45.95;;
16804;SDS011;8520;50.102;20.010;2023-07-02T06:01:18;46.00;;;43.20;;
16804;SDS011;8520;50.102;20.010;2023-07-02T06:03:48;39.67;;;37.53;;
16804;SDS011;8520;50.102;20.010;2023-07-02T06:06:17;35.28;;;33.35;;
16804;SDS011;8520;50.102;20.010;2023-07-02T06:08:45;33.17;;;31.30;;
16804;SDS011;8520;50.102;20.010;2023-07-02T06:11:13;29.70;;;28.00;;
16804;SDS011;8520;50.102;20.010;2023-07-02T06:13:43;29.95;;;28.25;;
16804;SDS011;8520;50.102;20.010;2023-07-02T06:16:11;25.08;;;23.77;;
16804;SDS011;8520;50.102;20.010;2023-07-02T06:18:39;22.27;;;21.08;;
16804;SDS011;8520;50.102;20.010;2023-07-02T06:21:07;19.02;;;17.92;;
16804;SDS011;8520;50.102;20.010;2023-07-02T06:23:39;19.60;;;18.33;;
16804;SDS011;8520;50.102;20.010;2023-07-02T06:26:09;18.15;;;17.15;;
16804;SDS011;8520;50.102;20.010;2023-07-02T06:28:38;18.63;;;17.52;;
16804;SDS011;8520;50.102;20.010;2023-07-02T06:31:08;19.63;;;18.38;;
16804;SDS011;8520;50.102;20.010;2023-07-02T06:33:38;18.48;;;17.45;;
16804;SDS011;8520;50.102;20.010;2023-07-02T06:36:06;17.95;;;16.85;;
16804;SDS011;8520;50.102;20.010;2023-07-02T06:38:38;17.20;;;16.20;;
16804;SDS011;8520;50.102;20.010;2023-07-02T06:41:06;16.73;;;15.60;;
16804;SDS011;8520;50.102;20.010;2023-07-02T06:43:34;16.27;;;15.27;;
16804;SDS011;8520;50.102;20.010;2023-07-02T06:46:03;16.20;;;15.20;;
16804;SDS011;8520;50.102;20.010;2023-07-02T06:48:32;15.85;;;14.88;;
16804;SDS011;8520;50.102;20.010;2023-07-02T06:51:00;15.02;;;14.02;;
16804;SDS011;8520;50.102;20.010;2023-07-02T06:53:29;14.88;;;13.93;;
16804;SDS011;8520;50.102;20.010;2023-07-02T06:55:57;17.02;;;16.13;;
16804;SDS011;8520;50.102;20.010;2023-07-02T06:58:25;17.10;;;16.02;;
16804;SDS011;8520;50.102;20.010;2023-07-02T07:00:53;17.20;;;16.20;;
16804;SDS011;8520;50.102;20.010;2023-07-02T07:03:21;15.00;;;14.10;;
16804;SDS011;8520;50.102;20.010;2023-07-02T07:05:52;13.82;;;12.90;;
16804;SDS011;8520;50.102;20.010;2023-07-02T07:08:20;13.80;;;12.98;;
16804;SDS011;8520;50.102;20.010;2023-07-02T07:10:49;14.70;;;13.63;;
16804;SDS011;8520;50.102;20.010;2023-07-02T07:13:18;13.30;;;12.50;;
16804;SDS011;8520;50.102;20.010;2023-07-02T07:15:46;12.63;;;11.75;;
16804;SDS011;8520;50.102;20.010;2023-07-02T07:18:14;12.90;;;11.77;;
16804;SDS011;8520;50.102;20.010;2023-07-02T07:20:45;11.95;;;11.05;;
16804;SDS011;8520;50.102;20.010;2023-07-02T07:23:15;10.73;;;9.82;;
16804;SDS011;8520;50.102;20.010;2023-07-02T07:25:44;10.02;;;9.32;;
16804;SDS011;8520;50.102;20.010;2023-07-02T07:28:12;9.80;;;9.10;;
16804;SDS011;8520;50.102;20.010;2023-07-02T07:30:42;10.38;;;9.68;;
16804;SDS011;8520;50.102;20.010;2023-07-02T07:33:10;11.10;;;10.18;;
16804;SDS011;8520;50.102;20.010;2023-07-02T07:35:38;11.30;;;10.50;;
16804;SDS011;8520;50.102;20.010;2023-07-02T07:38:07;11.75;;;10.93;;
16804;SDS011;8520;50.102;20.010;2023-07-02T07:40:36;11.05;;;10.20;;
16804;SDS011;8520;50.102;20.010;2023-07-02T07:43:04;10.60;;;9.82;;
16804;SDS011;8520;50.102;20.010;2023-07-02T07:45:32;11.73;;;10.88;;
16804;SDS011;8520;50.102;20.010;2023-07-02T07:48:01;11.00;;;10.20;;
16804;SDS011;8520;50.102;20.010;2023-07-02T07:50:29;10.60;;;9.80;;
16804;SDS011;8520;50.102;20.010;2023-07-02T07:52:58;11.50;;;10.63;;
16804;SDS011;8520;50.102;20.010;2023-07-02T07:55:27;11.80;;;11.10;;
16804;SDS011;8520;50.102;20.010;2023-07-02T07:57:56;11.02;;;10.23;;
16804;SDS011;8520;50.102;20.010;2023-07-02T08:00:24;11.65;;;10.95;;
16804;SDS011;8520;50.102;20.010;2023-07-02T08:02:53;12.25;;;11.35;;
16804;SDS011;8520;50.102;20.010;2023-07-02T08:05:22;11.30;;;10.60;;
16804;SDS011;8520;50.102;20.010;2023-07-02T08:07:51;11.43;;;10.73;;
16804;SDS011;8520;50.102;20.010;2023-07-02T08:10:20;10.15;;;9.55;;
16804;SDS011;8520;50.102;20.010;2023-07-02T08:12:48;10.77;;;9.88;;
16804;SDS011;8520;50.102;20.010;2023-07-02T08:15:20;11.63;;;10.82;;
16804;SDS011;8520;50.102;20.010;2023-07-02T08:17:48;11.60;;;10.80;;
16804;SDS011;8520;50.102;20.010;2023-07-02T08:20:18;10.32;;;9.70;;
16804;SDS011;8520;50.102;20.010;2023-07-02T08:22:46;11.40;;;10.65;;
16804;SDS011;8520;50.102;20.010;2023-07-02T08:25:14;11.85;;;11.05;;
16804;SDS011;8520;50.102;20.010;2023-07-02T08:27:44;11.52;;;10.63;;
16804;SDS011;8520;50.102;20.010;2023-07-02T08:30:12;11.60;;;10.70;;
16804;SDS011;8520;50.102;20.010;2023-07-02T08:32:41;12.23;;;11.23;;
16804;SDS011;8520;50.102;20.010;2023-07-02T08:35:10;10.95;;;10.15;;
16804;SDS011;8520;50.102;20.010;2023-07-02T08:37:38;11.50;;;10.77;;
16804;SDS011;8520;50.102;20.010;2023-07-02T08:40:15;11.65;;;10.73;;
16804;SDS011;8520;50.102;20.010;2023-07-02T08:42:45;10.50;;;9.85;;
16804;SDS011;8520;50.102;20.010;2023-07-02T08:45:14;10.10;;;9.43;;
16804;SDS011;8520;50.102;20.010;2023-07-02T08:47:45;11.05;;;10.25;;
16804;SDS011;8520;50.102;20.010;2023-07-02T08:50:13;11.23;;;10.52;;
16804;SDS011;8520;50.102;20.010;2023-07-02T08:52:41;10.25;;;9.55;;
16804;SDS011;8520;50.102;20.010;2023-07-02T08:55:12;10.18;;;9.45;;
16804;SDS011;8520;50.102;20.010;2023-07-02T08:57:40;10.05;;;9.30;;
16804;SDS011;8520;50.102;20.010;2023-07-02T09:00:09;10.60;;;9.90;;
16804;SDS011;8520;50.102;20.010;2023-07-02T09:02:38;10.55;;;9.68;;
16804;SDS011;8520;50.102;20.010;2023-07-02T09:05:08;9.38;;;8.77;;
16804;SDS011;8520;50.102;20.010;2023-07-02T09:07:43;9.13;;;8.10;;
16804;SDS011;8520;50.102;20.010;2023-07-02T09:10:24;8.50;;;7.88;;
16804;SDS011;8520;50.102;20.010;2023-07-02T09:13:04;8.20;;;7.60;;
16804;SDS011;8520;50.102;20.010;2023-07-02T09:15:36;8.50;;;7.70;;
16804;SDS011;8520;50.102;20.010;2023-07-02T09:18:14;8.48;;;7.88;;
16804;SDS011;8520;50.102;20.010;2023-07-02T09:20:44;9.27;;;8.57;;
16804;SDS011;8520;50.102;20.010;2023-07-02T09:23:13;9.15;;;8.45;;
16804;SDS011;8520;50.102;20.010;2023-07-02T09:25:41;10.20;;;9.25;;
16804;SDS011;8520;50.102;20.010;2023-07-02T09:28:13;8.73;;;8.13;;
16804;SDS011;8520;50.102;20.010;2023-07-02T09:30:49;9.25;;;8.65;;
16804;SDS011;8520;50.102;20.010;2023-07-02T09:33:21;9.38;;;8.63;;
16804;SDS011;8520;50.102;20.010;2023-07-02T09:35:52;9.75;;;8.95;;
16804;SDS011;8520;50.102;20.010;2023-07-02T09:38:21;8.57;;;7.88;;
16804;SDS011;8520;50.102;20.010;2023-07-02T09:40:50;8.88;;;8.15;;
16804;SDS011;8520;50.102;20.010;2023-07-02T09:43:19;8.13;;;7.45;;
16804;SDS011;8520;50.102;20.010;2023-07-02T09:45:49;9.10;;;8.25;;
16804;SDS011;8520;50.102;20.010;2023-07-02T09:48:19;7.47;;;6.97;;
16804;SDS011;8520;50.102;20.010;2023-07-02T09:50:53;8.73;;;8.13;;
16804;SDS011;8520;50.102;20.010;2023-07-02T09:53:22;8.98;;;8.13;;
16804;SDS011;8520;50.102;20.010;2023-07-02T09:55:50;8.85;;;8.23;;
16804;SDS011;8520;50.102;20.010;2023-07-02T09:58:19;6.93;;;6.45;;
16804;SDS011;8520;50.102;20.010;2023-07-02T10:00:47;7.35;;;6.85;;
16804;SDS011;8520;50.102;20.010;2023-07-02T10:03:16;6.28;;;5.95;;
16804;SDS011;8520;50.102;20.010;2023-07-02T10:05:44;7.07;;;6.57;;
16804;SDS011;8520;50.102;20.010;2023-07-02T10:08:15;7.22;;;6.72;;
16804;SDS011;8520;50.102;20.010;2023-07-02T10:10:45;7.30;;;6.80;;
16804;SDS011;8520;50.102;20.010;2023-07-02T10:13:13;7.70;;;7.20;;
16804;SDS011;8520;50.102;20.010;2023-07-02T10:15:42;7.00;;;6.60;;
16804;SDS011;8520;50.102;20.010;2023-07-02T10:18:10;6.85;;;6.38;;
16804;SDS011;8520;50.102;20.010;2023-07-02T10:20:39;6.53;;;6.13;;
16804;SDS011;8520;50.102;20.010;2023-07-02T10:23:08;6.60;;;6.20;;
16804;SDS011;8520;50.102;20.010;2023-07-02T10:25:39;6.88;;;6.38;;
16804;SDS011;8520;50.102;20.010;2023-07-02T10:28:13;7.28;;;6.80;;
16804;SDS011;8520;50.102;20.010;2023-07-02T10:30:42;7.63;;;7.13;;
16804;SDS011;8520;50.102;20.010;2023-07-02T10:33:11;7.07;;;6.57;;
16804;SDS011;8520;50.102;20.010;2023-07-02T10:35:41;8.27;;;7.78;;
16804;SDS011;8520;50.102;20.010;2023-07-02T10:38:13;7.15;;;6.75;;
16804;SDS011;8520;50.102;20.010;2023-07-02T10:40:44;7.70;;;7.30;;
16804;SDS011;8520;50.102;20.010;2023-07-02T10:43:12;7.63;;;7.13;;
16804;SDS011;8520;50.102;20.010;2023-07-02T10:45:41;8.15;;;7.65;;
16804;SDS011;8520;50.102;20.010;2023-07-02T10:48:09;8.45;;;7.78;;
16804;SDS011;8520;50.102;20.010;2023-07-02T10:50:38;8.30;;;7.60;;
16804;SDS011;8520;50.102;20.010;2023-07-02T10:53:06;8.40;;;7.80;;
16804;SDS011;8520;50.102;20.010;2023-07-02T10:55:42;7.43;;;7.03;;
16804;SDS011;8520;50.102;20.010;2023-07-02T10:58:12;7.50;;;7.00;;
16804;SDS011;8520;50.102;20.010;2023-07-02T11:00:44;8.18;;;7.47;;
16804;SDS011;8520;50.102;20.010;2023-07-02T11:03:16;8.20;;;7.70;;
16804;SDS011;8520;50.102;20.010;2023-07-02T11:05:46;8.75;;;8.15;;
16804;SDS011;8520;50.102;20.010;2023-07-02T11:08:16;7.80;;;7.40;;
16804;SDS011;8520;50.102;20.010;2023-07-02T11:10:46;8.82;;;8.32;;
16804;SDS011;8520;50.102;20.010;2023-07-02T11:13:15;9.40;;;8.70;;
16804;SDS011;8520;50.102;20.010;2023-07-02T11:15:44;9.23;;;8.70;;
16804;SDS011;8520;50.102;20.010;2023-07-02T11:18:15;10.32;;;9.60;;
16804;SDS011;8520;50.102;20.010;2023-07-02T11:20:45;8.75;;;8.25;;
16804;SDS011;8520;50.102;20.010;2023-07-02T11:23:17;8.68;;;8.07;;
16804;SDS011;8520;50.102;20.010;2023-07-02T11:25:57;8.90;;;8.23;;
16804;SDS011;8520;50.102;20.010;2023-07-02T11:28:27;8.90;;;8.20;;
16804;SDS011;8520;50.102;20.010;2023-07-02T11:30:58;8.38;;;7.88;;
16804;SDS011;8520;50.102;20.010;2023-07-02T11:33:33;8.65;;;8.15;;
16804;SDS011;8520;50.102;20.010;2023-07-02T11:36:03;8.32;;;7.82;;
16804;SDS011;8520;50.102;20.010;2023-07-02T11:38:32;8.82;;;8.32;;
16804;SDS011;8520;50.102;20.010;2023-07-02T11:41:03;7.97;;;7.45;;
16804;SDS011;8520;50.102;20.010;2023-07-02T11:43:32;8.38;;;7.90;;
16804;SDS011;8520;50.102;20.010;2023-07-02T11:46:00;8.02;;;7.53;;
16804;SDS011;8520;50.102;20.010;2023-07-02T11:48:28;7.32;;;6.82;;
16804;SDS011;8520;50.102;20.010;2023-07-02T11:50:56;7.65;;;7.15;;
16804;SDS011;8520;50.102;20.010;2023-07-02T11:53:25;6.60;;;6.20;;
16804;SDS011;8520;50.102;20.010;2023-07-02T11:55:53;6.70;;;6.10;;
16804;SDS011;8520;50.102;20.010;2023-07-02T11:58:22;7.22;;;6.65;;
16804;SDS011;8520;50.102;20.010;2023-07-02T12:00:51;6.30;;;6.00;;
16804;SDS011;8520;50.102;20.010;2023-07-02T12:03:19;6.85;;;6.25;;
16804;SDS011;8520;50.102;20.010;2023-07-02T12:05:47;5.85;;;5.45;;
16804;SDS011;8520;50.102;20.010;2023-07-02T12:08:16;5.32;;;4.88;;
16804;SDS011;8520;50.102;20.010;2023-07-02T12:10:44;5.63;;;5.22;;
16804;SDS011;8520;50.102;20.010;2023-07-02T12:13:12;5.30;;;5.00;;
16804;SDS011;8520;50.102;20.010;2023-07-02T12:15:42;5.20;;;4.90;;
16804;SDS011;8520;50.102;20.010;2023-07-02T12:18:10;4.90;;;4.70;;
16804;SDS011;8520;50.102;20.010;2023-07-02T12:20:39;5.57;;;5.18;;
16804;SDS011;8520;50.102;20.010;2023-07-02T12:23:07;5.03;;;4.72;;
16804;SDS011;8520;50.102;20.010;2023-07-02T12:25:36;5.63;;;5.22;;
16804;SDS011;8520;50.102;20.010;2023-07-02T12:28:04;4.43;;;4.13;;
16804;SDS011;8520;50.102;20.010;2023-07-02T12:30:33;5.18;;;4.78;;
16804;SDS011;8520;50.102;20.010;2023-07-02T12:33:02;4.03;;;3.80;;
16804;SDS011;8520;50.102;20.010;2023-07-02T12:35:30;4.95;;;4.65;;
16804;SDS011;8520;50.102;20.010;2023-07-02T12:37:59;4.50;;;4.20;;
16804;SDS011;8520;50.102;20.010;2023-07-02T12:40:30;4.47;;;4.28;;
16804;SDS011;8520;50.102;20.010;2023-07-02T12:42:58;4.05;;;3.80;;
16804;SDS011;8520;50.102;20.010;2023-07-02T12:45:27;4.32;;;4.13;;
16804;SDS011;8520;50.102;20.010;2023-07-02T12:47:55;3.83;;;3.63;;
16804;SDS011;8520;50.102;20.010;2023-07-02T12:50:25;5.25;;;4.95;;
16804;SDS011;8520;50.102;20.010;2023-07-02T12:52:53;3.88;;;3.67;;
16804;SDS011;8520;50.102;20.010;2023-07-02T12:55:21;4.50;;;4.20;;
16804;SDS011;8520;50.102;20.010;2023-07-02T12:57:49;4.13;;;3.83;;
16804;SDS011;8520;50.102;20.010;2023-07-02T13:00:17;4.25;;;4.05;;
16804;SDS011;8520;50.102;20.010;2023-07-02T13:02:46;4.30;;;4.00;;
16804;SDS011;8520;50.102;20.010;2023-07-02T13:05:30;4.75;;;4.45;;
16804;SDS011;8520;50.102;20.010;2023-07-02T13:07:59;5.15;;;4.95;;
16804;SDS011;8520;50.102;20.010;2023-07-02T13:10:28;4.10;;;3.90;;
16804;SDS011;8520;50.102;20.010;2023-07-02T13:12:57;3.85;;;3.65;;
16804;SDS011;8520;50.102;20.010;2023-07-02T13:15:39;5.25;;;4.95;;
16804;SDS011;8520;50.102;20.010;2023-07-02T13:18:07;4.47;;;4.18;;
16804;SDS011;8520;50.102;20.010;2023-07-02T13:20:37;4.60;;;4.40;;
16804;SDS011;8520;50.102;20.010;2023-07-02T13:23:05;4.25;;;4.05;;
16804;SDS011;8520;50.102;20.010;2023-07-02T13:25:33;4.20;;;4.00;;
16804;SDS011;8520;50.102;20.010;2023-07-02T13:28:01;4.30;;;4.00;;
16804;SDS011;8520;50.102;20.010;2023-07-02T13:30:30;4.78;;;4.57;;
16804;SDS011;8520;50.102;20.010;2023-07-02T13:32:58;4.68;;;4.47;;
16804;SDS011;8520;50.102;20.010;2023-07-02T13:35:26;4.70;;;4.50;;
16804;SDS011;8520;50.102;20.010;2023-07-02T13:37:56;4.20;;;4.00;;
16804;SDS011;8520;50.102;20.010;2023-07-02T13:40:26;4.60;;;4.40;;
16804;SDS011;8520;50.102;20.010;2023-07-02T13:42:54;4.35;;;4.15;;
16804;SDS011;8520;50.102;20.010;2023-07-02T13:45:22;3.95;;;3.83;;
16804;SDS011;8520;50.102;20.010;2023-07-02T13:47:50;5.40;;;5.10;;
16804;SDS011;8520;50.102;20.010;2023-07-02T13:50:18;3.50;;;3.40;;
16804;SDS011;8520;50.102;20.010;2023-07-02T13:52:47;3.92;;;3.17;;
16804;SDS011;8520;50.102;20.010;2023-07-02T13:55:17;3.50;;;3.20;;
16804;SDS011;8520;50.102;20.010;2023-07-02T13:57:47;4.32;;;2.70;;
16804;SDS011;8520;50.102;20.010;2023-07-02T14:00:17;3.20;;;3.10;;
16804;SDS011;8520;50.102;20.010;2023-07-02T14:02:45;3.10;;;2.90;;
16804;SDS011;8520;50.102;20.010;2023-07-02T14:05:14;3.40;;;3.30;;
16804;SDS011;8520;50.102;20.010;2023-07-02T14:07:42;4.38;;;2.60;;
16804;SDS011;8520;50.102;20.010;2023-07-02T14:10:10;2.70;;;2.60;;
16804;SDS011;8520;50.102;20.010;2023-07-02T14:12:39;2.55;;;2.45;;
16804;SDS011;8520;50.102;20.010;2023-07-02T14:15:08;3.08;;;2.33;;
16804;SDS011;8520;50.102;20.010;2023-07-02T14:17:38;2.63;;;2.53;;
16804;SDS011;8520;50.102;20.010;2023-07-02T14:20:07;2.50;;;2.40;;
16804;SDS011;8520;50.102;20.010;2023-07-02T14:22:36;3.40;;;3.20;;
16804;SDS011;8520;50.102;20.010;2023-07-02T14:25:04;3.15;;;2.95;;
16804;SDS011;8520;50.102;20.010;2023-07-02T14:27:33;3.17;;;2.97;;
16804;SDS011;8520;50.102;20.010;2023-07-02T14:30:01;3.75;;;3.65;;
16804;SDS011;8520;50.102;20.010;2023-07-02T14:32:34;4.50;;;4.30;;
16804;SDS011;8520;50.102;20.010;2023-07-02T14:35:04;4.18;;;3.97;;